createdAt,value
2023-05-20T00:00:58.326Z,100.00
2023-05-20T00:03:26.507Z,100.00
2023-05-20T00:05:55.105Z,100.00
2023-05-20T00:08:23.512Z,100.00
2023-05-20T00:10:52.096Z,100.00
2023-05-20T00:13:21.529Z,100.00
2023-05-20T00:15:49.668Z,100.00
2023-05-20T00:18:18.204Z,100.00
2023-05-20T00:20:46.748Z,100.00
2023-05-20T00:23:15.113Z,100.00
2023-05-20T00:25:43.427Z,100.00
2023-05-20T00:28:11.473Z,100.00
2023-05-20T00:30:42.749Z,100.00
2023-05-20T00:33:11.019Z,100.00
2023-05-20T00:35:39.590Z,100.00
2023-05-20T00:38:07.983Z,100.00
2023-05-20T00:40:36.105Z,100.00
2023-05-20T00:43:04.510Z,100.00
2023-05-20T00:45:33.062Z,100.00
2023-05-20T00:48:04.355Z,100.00
2023-05-20T00:50:33.144Z,100.00
2023-05-20T00:53:01.342Z,100.00
2023-05-20T00:55:29.879Z,100.00
2023-05-20T00:57:58.198Z,100.00
2023-05-20T01:00:26.662Z,100.00
2023-05-20T01:02:56.999Z,100.00
2023-05-20T01:05:26.908Z,100.00
2023-05-20T01:07:55.275Z,100.00
2023-05-20T01:10:25.457Z,100.00
2023-05-20T01:12:56.149Z,100.00
2023-05-20T01:15:26.320Z,100.00
2023-05-20T01:17:58.253Z,100.00
2023-05-20T01:20:29.835Z,100.00
2023-05-20T01:23:00.276Z,100.00
2023-05-20T01:25:28.689Z,100.00
2023-05-20T01:27:58.130Z,100.00
2023-05-20T01:30:28.297Z,100.00
2023-05-20T01:32:59.486Z,100.00
2023-05-20T01:35:27.933Z,100.00
2023-05-20T01:37:57.437Z,100.00
2023-05-20T01:40:28.037Z,100.00
2023-05-20T01:42:57.629Z,100.00
2023-05-20T01:45:26.877Z,100.00
2023-05-20T01:47:55.179Z,100.00
2023-05-20T01:50:24.463Z,100.00
2023-05-20T01:52:53.861Z,100.00
2023-05-20T01:55:22.416Z,100.00
2023-05-20T01:57:52.091Z,100.00
2023-05-20T02:00:21.381Z,100.00
2023-05-20T02:02:50.241Z,100.00
2023-05-20T02:05:20.895Z,100.00
2023-05-20T02:07:49.056Z,100.00
2023-05-20T02:10:17.357Z,100.00
2023-05-20T02:12:46.358Z,100.00
2023-05-20T02:15:18.424Z,100.00
2023-05-20T02:17:47.345Z,100.00
2023-05-20T02:20:17.278Z,100.00
2023-05-20T02:22:46.238Z,100.00
2023-05-20T02:25:14.514Z,100.00
2023-05-20T02:27:44.788Z,100.00
2023-05-20T02:30:15.730Z,100.00
2023-05-20T02:32:46.885Z,100.00
2023-05-20T02:35:15.527Z,100.00
2023-05-20T02:37:44.953Z,100.00
2023-05-20T02:40:13.155Z,100.00
2023-05-20T02:42:41.870Z,100.00
2023-05-20T02:45:13.677Z,100.00
2023-05-20T02:47:41.666Z,100.00
2023-05-20T02:50:11.707Z,100.00
2023-05-20T02:52:40.125Z,100.00
2023-05-20T02:55:08.860Z,100.00
2023-05-20T02:57:38.521Z,100.00
2023-05-20T03:00:13.410Z,100.00
2023-05-20T03:02:41.347Z,100.00
2023-05-20T03:05:12.512Z,100.00
2023-05-20T03:07:40.300Z,100.00
2023-05-20T03:10:09.494Z,100.00
2023-05-20T03:12:40.125Z,100.00
2023-05-20T03:15:10.983Z,100.00
2023-05-20T03:17:39.364Z,100.00
2023-05-20T03:20:08.412Z,100.00
2023-05-20T03:22:38.401Z,100.00
2023-05-20T03:25:07.375Z,100.00
2023-05-20T03:27:37.157Z,100.00
2023-05-20T03:30:06.019Z,100.00
2023-05-20T03:32:34.701Z,100.00
2023-05-20T03:35:03.324Z,100.00
2023-05-20T03:37:31.828Z,100.00
2023-05-20T03:40:01.539Z,100.00
2023-05-20T03:42:29.980Z,100.00
2023-05-20T03:44:58.384Z,100.00
2023-05-20T03:47:27.415Z,100.00
2023-05-20T03:49:56.504Z,100.00
2023-05-20T03:52:24.560Z,100.00
2023-05-20T03:54:52.692Z,100.00
2023-05-20T03:57:22.737Z,100.00
2023-05-20T03:59:51.364Z,100.00
2023-05-20T04:02:20.007Z,100.00
2023-05-20T04:04:48.488Z,100.00
2023-05-20T04:07:16.677Z,100.00
2023-05-20T04:09:45.075Z,100.00
2023-05-20T04:12:14.493Z,100.00
2023-05-20T04:14:44.215Z,100.00
2023-05-20T04:17:12.562Z,100.00
2023-05-20T04:19:41.452Z,100.00
2023-05-20T04:22:10.105Z,100.00
2023-05-20T04:24:39.227Z,100.00
2023-05-20T04:27:07.320Z,100.00
2023-05-20T04:29:37.314Z,100.00
2023-05-20T04:32:07.974Z,100.00
2023-05-20T04:34:37.795Z,100.00
2023-05-20T04:37:08.000Z,100.00
2023-05-20T04:39:36.513Z,100.00
2023-05-20T04:42:05.079Z,100.00
2023-05-20T04:44:33.650Z,100.00
2023-05-20T04:47:01.626Z,100.00
2023-05-20T04:49:33.391Z,100.00
2023-05-20T04:52:01.743Z,100.00
2023-05-20T04:54:30.140Z,100.00
2023-05-20T04:56:58.959Z,100.00
2023-05-20T04:59:26.884Z,100.00
2023-05-20T05:01:54.863Z,100.00
2023-05-20T05:04:24.361Z,100.00
2023-05-20T05:06:53.803Z,100.00
2023-05-20T05:09:24.358Z,100.00
2023-05-20T05:11:53.674Z,100.00
2023-05-20T05:14:22.223Z,100.00
2023-05-20T05:16:50.318Z,100.00
2023-05-20T05:19:18.999Z,100.00
2023-05-20T05:21:49.765Z,100.00
2023-05-20T05:24:19.668Z,100.00
2023-05-20T05:26:47.675Z,100.00
2023-05-20T05:29:16.984Z,100.00
2023-05-20T05:31:45.277Z,100.00
2023-05-20T05:34:13.621Z,100.00
2023-05-20T05:36:42.909Z,100.00
2023-05-20T05:39:11.069Z,100.00
2023-05-20T05:41:41.877Z,100.00
2023-05-20T05:44:15.556Z,100.00
2023-05-20T05:46:44.342Z,100.00
2023-05-20T05:49:13.172Z,100.00
2023-05-20T05:51:41.385Z,100.00
2023-05-20T05:54:09.470Z,100.00
2023-05-20T05:56:37.382Z,100.00
2023-05-20T05:59:07.286Z,100.00
2023-05-20T06:01:35.660Z,100.00
2023-05-20T06:04:05.409Z,100.00
2023-05-20T06:06:35.022Z,100.00
2023-05-20T06:09:03.345Z,100.00
2023-05-20T06:11:33.178Z,100.00
2023-05-20T06:14:02.636Z,100.00
2023-05-20T06:16:32.116Z,100.00
2023-05-20T06:19:03.459Z,100.00
2023-05-20T06:21:33.133Z,100.00
2023-05-20T06:24:01.319Z,100.00
2023-05-20T06:26:30.108Z,100.00
2023-05-20T06:28:58.864Z,100.00
2023-05-20T06:31:27.609Z,100.00
2023-05-20T06:33:57.383Z,100.00
2023-05-20T06:36:25.281Z,100.00
2023-05-20T06:38:53.591Z,100.00
2023-05-20T06:41:23.277Z,100.00
2023-05-20T06:43:53.655Z,100.00
2023-05-20T06:46:51.195Z,100.00
2023-05-20T06:49:20.782Z,100.00
2023-05-20T06:51:49.605Z,100.00
2023-05-20T06:54:17.884Z,100.00
2023-05-20T06:56:47.045Z,100.00
2023-05-20T06:59:15.915Z,100.00
2023-05-20T07:01:44.603Z,100.00
2023-05-20T07:04:13.690Z,100.00
2023-05-20T07:06:43.297Z,100.00
2023-05-20T07:09:11.261Z,100.00
2023-05-20T07:11:39.854Z,100.00
2023-05-20T07:14:08.764Z,100.00
2023-05-20T07:16:39.960Z,100.00
2023-05-20T07:19:08.846Z,100.00
2023-05-20T07:21:37.092Z,100.00
2023-05-20T07:24:37.472Z,100.00
2023-05-20T07:27:08.690Z,100.00
2023-05-20T07:29:37.184Z,100.00
2023-05-20T07:32:05.793Z,100.00
2023-05-20T07:34:35.199Z,100.00
2023-05-20T07:37:03.573Z,100.00
2023-05-20T07:39:31.531Z,100.00
2023-05-20T07:42:01.741Z,100.00
2023-05-20T07:44:30.127Z,100.00
2023-05-20T07:46:59.470Z,100.00
2023-05-20T07:49:27.842Z,94.43
2023-05-20T07:51:56.243Z,92.96
2023-05-20T07:54:24.282Z,98.09
2023-05-20T07:56:53.928Z,100.00
2023-05-20T07:59:23.549Z,100.00
2023-05-20T08:01:52.151Z,94.03
2023-05-20T08:04:21.730Z,91.54
2023-05-20T08:06:49.635Z,85.47
2023-05-20T08:09:35.410Z,86.31
2023-05-20T08:12:04.838Z,87.49
2023-05-20T08:14:36.306Z,81.61
2023-05-20T08:17:04.910Z,82.56
2023-05-20T08:19:32.860Z,76.34
2023-05-20T08:22:00.875Z,85.04
2023-05-20T08:24:28.967Z,78.67
2023-05-20T08:26:57.003Z,78.53
2023-05-20T08:29:27.541Z,86.31
2023-05-20T08:31:56.636Z,77.92
2023-05-20T08:34:25.942Z,67.10
2023-05-20T08:36:53.942Z,68.06
2023-05-20T08:39:21.764Z,67.86
2023-05-20T08:41:49.773Z,68.69
2023-05-20T08:44:19.887Z,77.82
2023-05-20T08:46:48.915Z,84.40
2023-05-20T08:49:18.230Z,87.41
2023-05-20T08:51:46.395Z,86.89
2023-05-20T08:54:14.805Z,82.39
2023-05-20T08:56:42.979Z,78.95
2023-05-20T08:59:11.361Z,72.70
2023-05-20T09:01:43.143Z,63.72
2023-05-20T09:04:11.657Z,70.11
2023-05-20T09:06:47.888Z,76.64
2023-05-20T09:09:16.001Z,78.37
2023-05-20T09:11:44.121Z,78.66
2023-05-20T09:14:12.143Z,83.60
2023-05-20T09:16:42.114Z,81.31
2023-05-20T09:19:11.610Z,87.18
2023-05-20T09:21:42.842Z,85.91
2023-05-20T09:24:12.305Z,82.29
2023-05-20T09:26:40.146Z,82.01
2023-05-20T09:29:12.008Z,88.03
2023-05-20T09:31:40.528Z,95.27
2023-05-20T09:34:09.272Z,91.59
2023-05-20T09:36:37.441Z,77.40
2023-05-20T09:39:07.889Z,70.91
2023-05-20T09:41:39.770Z,73.65
2023-05-20T09:44:08.431Z,73.96
2023-05-20T09:46:40.719Z,73.06
2023-05-20T09:49:10.290Z,72.55
2023-05-20T09:51:38.223Z,71.86
2023-05-20T09:54:08.507Z,71.31
2023-05-20T09:56:38.336Z,70.53
2023-05-20T09:59:06.906Z,70.76
2023-05-20T10:01:36.253Z,70.14
2023-05-20T10:04:06.869Z,70.96
2023-05-20T10:06:57.403Z,77.37
2023-05-20T10:09:44.085Z,69.29
2023-05-20T10:12:23.141Z,72.19
2023-05-20T10:14:56.642Z,72.00
2023-05-20T10:17:30.598Z,71.17
2023-05-20T10:19:58.927Z,71.55
2023-05-20T10:22:32.129Z,70.96
2023-05-20T10:25:01.254Z,72.57
2023-05-20T10:27:30.608Z,72.90
2023-05-20T10:29:58.922Z,68.31
2023-05-20T10:32:27.834Z,67.40
2023-05-20T10:35:00.188Z,69.58
2023-05-20T10:37:28.746Z,63.59
2023-05-20T10:40:04.828Z,65.73
2023-05-20T10:42:34.303Z,65.83
2023-05-20T10:45:03.657Z,68.23
2023-05-20T10:47:32.478Z,68.05
2023-05-20T10:50:02.129Z,70.67
2023-05-20T10:52:33.905Z,72.62
2023-05-20T10:55:02.134Z,73.42
2023-05-20T10:57:31.036Z,74.04
2023-05-20T11:00:01.350Z,73.96
2023-05-20T11:02:29.683Z,74.64
2023-05-20T11:04:58.433Z,67.88
2023-05-20T11:07:27.882Z,66.86
2023-05-20T11:09:55.856Z,69.15
2023-05-20T11:12:24.622Z,67.66
2023-05-20T11:14:52.785Z,64.51
2023-05-20T11:17:24.335Z,63.78
2023-05-20T11:19:52.495Z,60.08
2023-05-20T11:22:20.152Z,64.64
2023-05-20T11:24:47.923Z,65.63
2023-05-20T11:27:16.331Z,67.06
2023-05-20T11:29:44.647Z,71.64
2023-05-20T11:32:13.288Z,78.11
2023-05-20T11:34:42.972Z,80.50
2023-05-20T11:37:11.682Z,74.14
2023-05-20T11:39:40.577Z,62.21
2023-05-20T11:42:08.756Z,59.52
2023-05-20T11:44:36.841Z,61.34
2023-05-20T11:47:04.674Z,51.36
2023-05-20T11:49:40.331Z,50.81
2023-05-20T11:52:10.639Z,53.93
2023-05-20T11:54:38.485Z,65.35
2023-05-20T11:57:07.174Z,65.52
2023-05-20T11:59:35.076Z,56.45
2023-05-20T12:02:03.313Z,52.25
2023-05-20T12:04:31.656Z,53.79
2023-05-20T12:06:59.577Z,51.12
2023-05-20T12:09:28.934Z,49.10
2023-05-20T12:12:02.831Z,47.66
2023-05-20T12:14:31.045Z,57.16
2023-05-20T12:16:59.916Z,56.81
2023-05-20T12:19:27.889Z,57.72
2023-05-20T12:21:56.089Z,59.95
2023-05-20T12:24:24.449Z,57.75
2023-05-20T12:26:53.625Z,51.53
2023-05-20T12:29:21.719Z,47.69
2023-05-20T12:31:51.371Z,47.53
2023-05-20T12:34:19.589Z,43.49
2023-05-20T12:36:48.656Z,40.03
2023-05-20T12:39:17.728Z,44.70
2023-05-20T12:41:46.090Z,39.49
2023-05-20T12:44:15.435Z,41.92
2023-05-20T12:46:44.057Z,42.86
2023-05-20T12:49:11.866Z,44.67
2023-05-20T12:51:39.900Z,48.52
2023-05-20T12:54:07.815Z,53.15
2023-05-20T12:56:35.659Z,49.93
2023-05-20T12:59:07.775Z,47.75
2023-05-20T13:01:38.549Z,42.70
2023-05-20T13:04:07.687Z,60.04
2023-05-20T13:06:36.420Z,73.19
2023-05-20T13:09:04.807Z,70.00
2023-05-20T13:11:33.017Z,59.82
2023-05-20T13:14:03.528Z,56.90
2023-05-20T13:16:31.751Z,62.08
2023-05-20T13:19:01.368Z,57.40
2023-05-20T13:21:29.621Z,46.72
2023-05-20T13:23:57.631Z,63.02
2023-05-20T13:26:28.538Z,71.03
2023-05-20T13:28:58.770Z,73.13
2023-05-20T13:31:28.123Z,68.41
2023-05-20T13:33:59.562Z,66.28
2023-05-20T13:36:29.162Z,62.94
2023-05-20T13:38:57.188Z,61.28
2023-05-20T13:41:26.456Z,53.69
2023-05-20T13:43:55.671Z,53.08
2023-05-20T13:46:23.476Z,55.16
2023-05-20T13:48:51.533Z,53.53
2023-05-20T13:51:19.527Z,48.61
2023-05-20T13:53:49.080Z,49.73
2023-05-20T13:56:17.220Z,47.22
2023-05-20T13:58:45.290Z,48.92
2023-05-20T14:01:13.771Z,46.77
2023-05-20T14:03:43.189Z,54.14
2023-05-20T14:06:11.286Z,57.95
2023-05-20T14:08:39.395Z,59.84
2023-05-20T14:11:08.728Z,60.93
2023-05-20T14:13:36.919Z,59.64
2023-05-20T14:16:04.819Z,54.91
2023-05-20T14:18:35.083Z,56.30
2023-05-20T14:21:02.828Z,49.85
2023-05-20T14:23:30.682Z,62.08
2023-05-20T14:25:58.395Z,65.57
2023-05-20T14:28:27.643Z,61.61
2023-05-20T14:30:55.200Z,60.76
2023-05-20T14:33:22.959Z,64.14
2023-05-20T14:35:51.730Z,55.46
2023-05-20T14:38:21.362Z,52.88
2023-05-20T14:40:49.150Z,59.35
2023-05-20T14:43:16.736Z,66.03
2023-05-20T14:45:50.660Z,67.08
2023-05-20T14:48:18.678Z,54.92
2023-05-20T14:50:48.938Z,63.81
2023-05-20T14:53:17.987Z,73.40
2023-05-20T14:55:46.045Z,63.44
2023-05-20T14:58:14.962Z,57.62
2023-05-20T15:00:43.319Z,66.87
2023-05-20T15:03:12.812Z,69.02
2023-05-20T15:05:42.287Z,66.33
2023-05-20T15:08:10.121Z,59.32
2023-05-20T15:10:38.684Z,56.45
2023-05-20T15:13:07.649Z,54.64
2023-05-20T15:15:35.925Z,51.79
2023-05-20T15:18:04.105Z,52.26
2023-05-20T15:20:33.891Z,57.26
2023-05-20T15:23:01.799Z,57.01
2023-05-20T15:25:29.854Z,55.44
2023-05-20T15:27:58.106Z,58.11
2023-05-20T15:30:26.026Z,57.48
2023-05-20T15:32:54.615Z,61.54
2023-05-20T15:35:23.127Z,66.64
2023-05-20T15:37:53.155Z,66.16
2023-05-20T15:40:21.693Z,65.48
2023-05-20T15:42:51.575Z,64.06
2023-05-20T15:45:19.615Z,63.63
2023-05-20T15:50:19.643Z,63.67
2023-05-20T15:52:47.830Z,63.57
2023-05-20T15:55:18.145Z,59.96
2023-05-20T15:57:46.350Z,68.78
2023-05-20T16:00:17.168Z,62.70
2023-05-20T16:02:45.248Z,64.51
2023-05-20T16:05:13.115Z,66.51
2023-05-20T16:07:42.669Z,68.60
2023-05-20T16:10:12.179Z,66.46
2023-05-20T16:12:41.849Z,66.49
2023-05-20T16:15:10.744Z,68.36
2023-05-20T16:17:39.226Z,72.32
2023-05-20T16:20:07.950Z,75.84
2023-05-20T16:22:36.635Z,78.08
2023-05-20T16:25:05.359Z,79.36
2023-05-20T16:27:33.302Z,80.63
2023-05-20T16:30:08.740Z,82.46
2023-05-20T16:32:36.902Z,81.00
2023-05-20T16:35:05.888Z,80.37
2023-05-20T16:37:34.303Z,78.80
2023-05-20T16:40:02.490Z,79.52
2023-05-20T16:42:30.522Z,79.32
2023-05-20T16:45:00.010Z,82.20
2023-05-20T16:47:29.627Z,83.89
2023-05-20T16:49:58.403Z,83.12
2023-05-20T16:52:27.642Z,83.09
2023-05-20T16:54:57.389Z,83.12
2023-05-20T16:57:25.721Z,84.30
2023-05-20T16:59:53.809Z,86.38
2023-05-20T17:02:22.036Z,88.92
2023-05-20T17:04:52.627Z,89.93
2023-05-20T17:07:21.153Z,90.91
2023-05-20T17:09:49.292Z,91.96
2023-05-20T17:12:18.314Z,92.64
2023-05-20T17:14:46.868Z,94.91
2023-05-20T17:17:15.946Z,96.23
2023-05-20T17:19:44.188Z,95.21
2023-05-20T17:22:13.670Z,100.00
2023-05-20T17:24:41.904Z,100.00
2023-05-20T17:27:11.770Z,100.00
2023-05-20T17:29:39.836Z,100.00
2023-05-20T17:32:07.951Z,100.00
2023-05-20T17:34:35.677Z,100.00
2023-05-20T17:37:03.649Z,100.00
2023-05-20T17:39:33.048Z,100.00
2023-05-20T17:42:01.263Z,100.00
2023-05-20T17:44:29.096Z,100.00
2023-05-20T17:46:57.379Z,100.00
2023-05-20T17:49:25.510Z,100.00
2023-05-20T17:51:53.681Z,100.00
2023-05-20T17:54:21.472Z,100.00
2023-05-20T17:56:51.230Z,100.00
2023-05-20T17:59:19.248Z,100.00
2023-05-20T18:01:47.567Z,100.00
2023-05-20T18:04:15.580Z,100.00
2023-05-20T18:06:43.348Z,100.00
2023-05-20T18:09:12.272Z,100.00
2023-05-20T18:11:39.991Z,100.00
2023-05-20T18:14:10.926Z,100.00
2023-05-20T18:16:39.679Z,100.00
2023-05-20T18:19:07.690Z,100.00
2023-05-20T18:21:35.712Z,100.00
2023-05-20T18:24:03.790Z,100.00
2023-05-20T18:26:31.656Z,100.00
2023-05-20T18:28:59.549Z,100.00
2023-05-20T18:31:28.904Z,100.00
2023-05-20T18:33:57.177Z,100.00
2023-05-20T18:36:24.994Z,100.00
2023-05-20T18:38:54.057Z,100.00
2023-05-20T18:41:27.231Z,100.00
2023-05-20T18:44:05.561Z,100.00
2023-05-20T18:46:37.143Z,100.00
2023-05-20T18:49:05.051Z,100.00
2023-05-20T18:51:33.693Z,100.00
2023-05-20T18:54:02.440Z,100.00
2023-05-20T18:56:30.458Z,100.00
2023-05-20T18:58:58.366Z,100.00
2023-05-20T19:01:26.522Z,100.00
2023-05-20T19:03:56.371Z,100.00
2023-05-20T19:06:24.057Z,100.00
2023-05-20T19:08:52.075Z,100.00
2023-05-20T19:11:20.259Z,100.00
2023-05-20T19:13:50.956Z,100.00
2023-05-20T19:16:19.009Z,100.00
2023-05-20T19:18:54.920Z,100.00
2023-05-20T19:21:24.313Z,100.00
2023-05-20T19:23:54.837Z,100.00
2023-05-20T19:26:22.644Z,100.00
2023-05-20T19:28:50.478Z,100.00
2023-05-20T19:31:21.299Z,100.00
2023-05-20T19:33:49.416Z,100.00
2023-05-20T19:36:17.527Z,100.00
2023-05-20T19:38:47.110Z,100.00
2023-05-20T19:41:14.928Z,100.00
2023-05-20T19:43:42.780Z,100.00
2023-05-20T19:46:11.175Z,100.00
2023-05-20T19:48:39.326Z,100.00
2023-05-20T19:51:08.075Z,100.00
2023-05-20T19:53:37.034Z,100.00
2023-05-20T19:56:07.935Z,100.00
2023-05-20T19:58:35.957Z,100.00
2023-05-20T20:01:04.649Z,100.00
2023-05-20T20:03:34.944Z,100.00
2023-05-20T20:06:04.265Z,100.00
2023-05-20T20:08:32.698Z,100.00
2023-05-20T20:11:00.777Z,100.00
2023-05-20T20:13:33.379Z,100.00
2023-05-20T20:16:01.451Z,100.00
2023-05-20T20:18:29.859Z,100.00
2023-05-20T20:20:59.738Z,100.00
2023-05-20T20:23:27.941Z,100.00
2023-05-20T20:25:56.420Z,100.00
2023-05-20T20:28:24.404Z,100.00
2023-05-20T20:30:53.760Z,100.00
2023-05-20T20:33:21.901Z,100.00
2023-05-20T20:35:50.327Z,100.00
2023-05-20T20:38:18.570Z,100.00
2023-05-20T20:40:47.127Z,100.00
2023-05-20T20:43:20.964Z,100.00
2023-05-20T20:45:53.365Z,100.00
2023-05-20T20:48:27.011Z,100.00
2023-05-20T20:50:55.359Z,100.00
2023-05-20T20:53:23.437Z,100.00
2023-05-20T20:55:51.875Z,100.00
2023-05-20T20:58:19.841Z,100.00
2023-05-20T21:00:49.032Z,100.00
2023-05-20T21:03:17.002Z,100.00
2023-05-20T21:05:46.134Z,100.00
2023-05-20T21:08:14.745Z,100.00
2023-05-20T21:10:44.254Z,100.00
2023-05-20T21:13:13.091Z,100.00
2023-05-20T21:15:43.342Z,100.00
2023-05-20T21:18:11.444Z,100.00
2023-05-20T21:20:39.447Z,100.00
2023-05-20T21:23:09.012Z,100.00
2023-05-20T21:25:39.734Z,100.00
2023-05-20T21:28:07.685Z,100.00
2023-05-20T21:30:36.032Z,100.00
2023-05-20T21:33:03.889Z,100.00
2023-05-20T21:35:32.232Z,100.00
2023-05-20T21:38:01.450Z,100.00
2023-05-20T21:40:30.539Z,100.00
2023-05-20T21:42:59.265Z,100.00
2023-05-20T21:45:29.007Z,100.00
2023-05-20T21:47:56.904Z,100.00
2023-05-20T21:50:25.111Z,100.00
2023-05-20T21:52:53.186Z,100.00
2023-05-20T21:55:23.732Z,100.00
2023-05-20T21:57:53.540Z,100.00
2023-05-20T22:00:21.421Z,100.00
2023-05-20T22:02:51.044Z,100.00
2023-05-20T22:05:19.881Z,100.00
2023-05-20T22:07:47.793Z,100.00
2023-05-20T22:10:17.723Z,100.00
2023-05-20T22:12:47.512Z,100.00
2023-05-20T22:15:18.136Z,100.00
2023-05-20T22:17:50.470Z,100.00
2023-05-20T22:20:20.241Z,100.00
2023-05-20T22:22:49.256Z,100.00
2023-05-20T22:25:17.414Z,100.00
2023-05-20T22:27:45.360Z,100.00
2023-05-20T22:30:13.626Z,100.00
2023-05-20T22:32:42.703Z,100.00
2023-05-20T22:35:15.658Z,100.00
2023-05-20T22:37:45.784Z,100.00
2023-05-20T22:40:13.680Z,100.00
2023-05-20T22:42:42.053Z,100.00
2023-05-20T22:45:10.505Z,100.00
2023-05-20T22:47:38.292Z,100.00
2023-05-20T22:50:08.904Z,100.00
2023-05-20T22:52:37.801Z,100.00
2023-05-20T22:55:05.931Z,100.00
2023-05-20T22:57:33.820Z,100.00
2023-05-20T23:00:01.868Z,100.00
2023-05-20T23:02:30.616Z,100.00
2023-05-20T23:04:58.398Z,100.00
2023-05-20T23:07:27.919Z,100.00
2023-05-20T23:09:55.834Z,100.00
2023-05-20T23:12:23.890Z,100.00
2023-05-20T23:14:52.030Z,100.00
2023-05-20T23:17:21.027Z,100.00
2023-05-20T23:19:49.444Z,100.00
2023-05-20T23:22:17.414Z,100.00
2023-05-20T23:24:47.025Z,100.00
2023-05-20T23:27:15.102Z,100.00
2023-05-20T23:29:43.175Z,100.00
2023-05-20T23:32:12.080Z,100.00
2023-05-20T23:34:41.158Z,100.00
2023-05-20T23:37:09.143Z,100.00
2023-05-20T23:39:36.910Z,100.00
2023-05-20T23:42:06.534Z,100.00
2023-05-20T23:44:34.626Z,100.00
2023-05-20T23:47:04.130Z,100.00
2023-05-20T23:49:32.476Z,100.00
2023-05-20T23:52:01.773Z,100.00
2023-05-20T23:54:30.136Z,100.00
2023-05-20T23:56:58.407Z,100.00
2023-05-20T23:59:28.077Z,100.00
